Time;durP1;ratioP1;P1;durP2;ratioP2;P2;SDS_P1;SDS_P2;PMS_P1;PMS_P2;Temp;Humidity;BMP_temperature;BMP_pressure;BME280_temperature;BME280_humidity;BME280_pressure;Samples;Min_cycle;Max_cycle;Signal;HPM_P1;HPM_P2
2022/07/29 00:02:18;;;;;;;6.18;1.10;;;16.40;99.90;;;;;;5022460;28;20089;-80
2022/07/29 00:04:47;;;;;;;4.82;1.05;;;16.40;99.90;;;;;;5021919;28;20022;-81
2022/07/29 00:07:13;;;;;;;6.38;1.20;;;16.40;99.90;;;;;;5005264;28;20018;-83
2022/07/29 00:09:41;;;;;;;7.22;1.05;;;16.40;99.90;;;;;;5022152;28;20022;-81
2022/07/29 00:12:07;;;;;;;3.47;0.90;;;16.40;99.90;;;;;;5022340;28;20010;-81
2022/07/29 00:14:33;;;;;;;6.53;1.20;;;16.30;99.90;;;;;;5005185;28;20033;-80
2022/07/29 00:17:00;;;;;;;5.45;1.13;;;16.30;99.90;;;;;;5005288;28;20026;-82
2022/07/29 00:19:26;;;;;;;5.85;0.98;;;16.30;99.90;;;;;;5022086;28;20014;-81
2022/07/29 00:21:52;;;;;;;3.28;1.00;;;16.30;99.90;;;;;;5022010;28;20066;-80
2022/07/29 00:24:18;;;;;;;3.80;1.20;;;16.30;99.90;;;;;;5021760;28;20006;-80
2022/07/29 00:26:43;;;;;;;5.18;1.38;;;16.20;99.90;;;;;;5021769;28;20062;-83
2022/07/29 00:29:09;;;;;;;3.50;1.10;;;16.30;99.90;;;;;;5021941;28;20049;-84
2022/07/29 00:31:35;;;;;;;6.43;1.35;;;16.30;99.90;;;;;;5004886;28;20030;-84
2022/07/29 00:34:00;;;;;;;4.03;1.00;;;16.30;99.70;;;;;;5021455;28;20014;-84
2022/07/29 00:36:27;;;;;;;5.28;1.10;;;16.30;99.40;;;;;;5021549;28;20019;-81
2022/07/29 00:38:52;;;;;;;3.33;1.10;;;16.30;99.10;;;;;;5021342;28;20030;-91
2022/07/29 00:41:18;;;;;;;6.30;1.40;;;16.30;99.00;;;;;;5021525;28;20046;-84
2022/07/29 00:43:45;;;;;;;5.53;1.30;;;16.30;98.80;;;;;;5004549;28;20034;-88
2022/07/29 00:46:11;;;;;;;3.08;0.98;;;16.30;98.80;;;;;;5020986;28;20018;-82
2022/07/29 00:48:38;;;;;;;2.95;1.15;;;16.30;98.80;;;;;;5021262;28;20082;-83
2022/07/29 00:51:05;;;;;;;2.47;1.10;;;16.20;98.70;;;;;;5021255;28;20023;-83
2022/07/29 00:53:32;;;;;;;5.93;1.20;;;16.20;98.60;;;;;;5021310;28;20026;-80
2022/07/29 00:55:58;;;;;;;3.03;1.48;;;16.20;98.30;;;;;;5004181;28;20018;-80
2022/07/29 00:58:25;;;;;;;5.45;1.20;;;16.10;98.40;;;;;;5021378;28;20018;-80
2022/07/29 01:00:52;;;;;;;6.80;1.40;;;16.10;98.50;;;;;;5002925;28;20069;-81
2022/07/29 01:03:18;;;;;;;4.32;1.00;;;16.10;98.60;;;;;;5020567;28;20030;-85
2022/07/29 01:05:45;;;;;;;2.72;1.20;;;16.10;98.80;;;;;;5003718;28;20021;-81
2022/07/29 01:08:12;;;;;;;3.15;1.00;;;16.10;98.80;;;;;;5003652;28;20019;-87
2022/07/29 01:10:40;;;;;;;5.80;1.25;;;16.10;98.70;;;;;;5003615;28;20040;-82
2022/07/29 01:13:07;;;;;;;4.82;1.10;;;16.10;98.70;;;;;;5020761;28;20038;-86
2022/07/29 01:15:38;;;;;;;5.25;1.00;;;16.10;98.90;;;;;;5003949;28;20018;-82
2022/07/29 01:18:27;;;;;;;2.80;1.10;;;16.10;98.90;;;;;;5004132;28;20034;-82
2022/07/29 01:21:13;;;;;;;4.57;1.27;;;16.00;98.80;;;;;;5020426;28;20073;-81
2022/07/29 01:23:38;;;;;;;6.45;1.40;;;16.00;99.00;;;;;;5003839;28;20074;-85
2022/07/29 01:26:27;;;;;;;4.57;1.23;;;16.00;99.10;;;;;;5003524;28;20038;-84
2022/07/29 01:28:55;;;;;;;5.00;1.30;;;16.00;99.40;;;;;;5003531;28;20031;-81
2022/07/29 01:31:47;;;;;;;3.05;1.00;;;16.00;99.60;;;;;;5002879;28;20049;-84
2022/07/29 01:34:21;;;;;;;3.75;1.25;;;16.00;99.90;;;;;;5020283;28;20026;-81
2022/07/29 01:36:55;;;;;;;2.47;1.00;;;16.00;99.90;;;;;;5003692;28;20014;-84
2022/07/29 01:39:43;;;;;;;3.83;1.35;;;16.00;99.90;;;;;;5020559;28;20068;-85
2022/07/29 01:42:26;;;;;;;3.65;1.13;;;16.00;99.90;;;;;;5020231;28;20027;-83
2022/07/29 01:45:21;;;;;;;4.65;1.00;;;15.90;99.80;;;;;;5003362;28;20030;-87
2022/07/29 01:48:01;;;;;;;3.92;0.70;;;15.90;99.90;;;;;;5020324;28;20045;-86
2022/07/29 01:50:32;;;;;;;;;;;15.80;99.80;;;;;;5003781;28;20042;-83
2022/07/29 01:53:00;;;;;;;4.47;1.33;;;15.80;99.70;;;;;;5020290;28;19904;-81
2022/07/29 01:55:34;;;;;;;4.47;0.90;;;15.80;99.60;;;;;;5003349;28;20053;-82
2022/07/29 01:58:02;;;;;;;5.63;1.00;;;15.80;99.50;;;;;;5020133;28;20085;-87
2022/07/29 02:00:29;;;;;;;4.20;1.38;;;15.80;99.40;;;;;;5020160;28;20034;-84
2022/07/29 02:02:59;;;;;;;4.68;1.10;;;15.70;99.30;;;;;;5020292;28;20015;-82
2022/07/29 02:05:28;;;;;;;5.75;1.17;;;15.70;99.20;;;;;;5020098;28;20018;-86
2022/07/29 02:07:57;;;;;;;6.82;1.45;;;15.60;99.10;;;;;;5020019;28;20022;-82
2022/07/29 02:10:27;;;;;;;4.57;0.90;;;15.60;99.20;;;;;;5020059;28;20038;-83
2022/07/29 02:12:55;;;;;;;4.90;1.10;;;15.60;99.40;;;;;;5018818;28;20086;-81
2022/07/29 02:15:28;;;;;;;4.88;1.23;;;15.60;99.40;;;;;;5019878;28;20026;-81
2022/07/29 02:18:04;;;;;;;2.13;0.98;;;15.60;99.30;;;;;;5019646;28;20074;-82
2022/07/29 02:20:31;;;;;;;2.83;1.38;;;15.60;99.60;;;;;;5019801;28;20090;-81
2022/07/29 02:22:58;;;;;;;3.75;1.17;;;15.50;99.40;;;;;;5002663;28;20034;-80
2022/07/29 02:25:25;;;;;;;1.30;0.85;;;15.50;99.60;;;;;;5002920;28;20030;-81
2022/07/29 02:27:52;;;;;;;4.72;1.30;;;15.50;99.60;;;;;;5019572;28;20043;-82
2022/07/29 02:30:19;;;;;;;5.90;1.10;;;15.50;99.90;;;;;;5002330;28;20034;-83
2022/07/29 02:32:46;;;;;;;3.22;1.02;;;15.50;99.90;;;;;;5019494;28;20022;-82
2022/07/29 02:35:22;;;;;;;5.13;1.20;;;15.40;99.90;;;;;;5019390;28;20030;-88
2022/07/29 02:38:49;;;;;;;6.07;1.33;;;15.40;99.90;;;;;;5019622;28;20021;-84
2022/07/29 02:40:38;;;;;;;10.73;1.33;;;15.40;99.90;;;;;;5019092;28;20057;-81
2022/07/29 02:43:08;;;;;;;9.82;1.42;;;15.40;99.90;;;;;;5002430;28;20014;-83
2022/07/29 02:45:34;;;;;;;8.13;1.27;;;15.30;99.90;;;;;;5002272;28;20048;-86
2022/07/29 02:48:13;;;;;;;2.97;1.48;;;15.30;99.90;;;;;;5002325;28;20041;-82
2022/07/29 02:50:49;;;;;;;2.78;1.45;;;15.30;99.90;;;;;;5019036;28;20018;-80
2022/07/29 02:53:22;;;;;;;3.97;1.58;;;15.20;99.90;;;;;;5019046;28;20019;-86
2022/07/29 02:56:11;;;;;;;3.05;1.30;;;15.20;99.90;;;;;;5002039;28;20014;-88
2022/07/29 02:58:53;;;;;;;3.53;1.27;;;15.20;99.90;;;;;;5001913;28;20022;-81
2022/07/29 03:01:29;;;;;;;4.85;1.55;;;15.10;99.90;;;;;;5018623;28;20022;-84
2022/07/29 03:03:56;;;;;;;5.53;2.08;;;15.00;99.90;;;;;;5000817;28;20029;-91
2022/07/29 03:06:25;;;;;;;2.08;1.40;;;15.00;99.90;;;;;;5000463;28;20041;-82
2022/07/29 03:08:55;;;;;;;9.25;1.50;;;15.00;99.90;;;;;;5001422;28;20018;-82
2022/07/29 03:11:21;;;;;;;5.53;1.25;;;15.00;99.90;;;;;;5018619;28;20026;-81
2022/07/29 03:13:48;;;;;;;4.57;1.48;;;14.90;99.90;;;;;;5001418;28;20023;-93
2022/07/29 03:16:15;;;;;;;5.38;1.88;;;15.00;99.90;;;;;;5001626;28;20018;-82
2022/07/29 03:18:41;;;;;;;2.65;1.50;;;15.00;99.90;;;;;;5001510;28;20015;-88
2022/07/29 03:21:08;;;;;;;5.18;1.58;;;15.00;99.90;;;;;;5018408;28;20018;-94
2022/07/29 03:23:33;;;;;;;7.30;1.67;;;15.00;99.90;;;;;;5018069;28;20074;-83
2022/07/29 03:25:59;;;;;;;1.98;1.42;;;14.90;99.90;;;;;;5017863;28;20026;-82
2022/07/29 03:28:27;;;;;;;3.65;1.70;;;14.90;99.90;;;;;;5017939;28;20037;-88
2022/07/29 03:30:53;;;;;;;3.95;1.40;;;15.00;99.90;;;;;;5017957;28;20046;-83
2022/07/29 03:33:19;;;;;;;3.65;2.05;;;15.00;99.90;;;;;;5000962;28;20069;-91
2022/07/29 03:35:45;;;;;;;7.57;1.58;;;15.00;99.90;;;;;;5000374;28;20090;-85
2022/07/29 03:38:14;;;;;;;4.90;1.33;;;15.00;99.90;;;;;;5017635;28;20022;-88
2022/07/29 03:40:55;;;;;;;3.92;1.23;;;15.00;99.90;;;;;;5000575;28;20027;-88
2022/07/29 03:43:24;;;;;;;3.97;1.52;;;15.00;99.90;;;;;;5017795;28;20039;-91
2022/07/29 03:45:53;;;;;;;5.50;1.58;;;15.00;99.90;;;;;;5000716;28;20021;-89
2022/07/29 03:48:21;;;;;;;6.30;1.60;;;15.00;99.90;;;;;;5017779;28;20007;-85
2022/07/29 03:50:48;;;;;;;4.70;2.00;;;15.10;99.90;;;;;;5018115;28;20022;-82
2022/07/29 03:53:14;;;;;;;4.70;1.70;;;15.10;99.90;;;;;;5001075;28;20018;-82
2022/07/29 03:55:53;;;;;;;5.22;1.90;;;15.10;99.90;;;;;;5017980;28;20038;-82
2022/07/29 03:58:20;;;;;;;5.07;1.47;;;15.10;99.90;;;;;;5018156;28;20026;-81
2022/07/29 04:00:46;;;;;;;6.75;2.25;;;15.10;99.90;;;;;;5017796;28;20260;-84
2022/07/29 04:03:12;;;;;;;5.95;1.67;;;15.10;99.90;;;;;;5017731;28;20014;-87
2022/07/29 04:05:38;;;;;;;3.95;1.55;;;15.00;99.90;;;;;;5017569;28;20022;-85
2022/07/29 04:08:05;;;;;;;3.60;1.50;;;15.00;99.90;;;;;;5017724;28;20045;-90
2022/07/29 04:10:33;;;;;;;5.07;1.45;;;15.00;99.90;;;;;;5000550;28;20053;-85
2022/07/29 04:12:59;;;;;;;3.60;1.35;;;15.00;99.90;;;;;;5017280;28;20053;-89
2022/07/29 04:15:27;;;;;;;6.68;1.70;;;15.00;99.90;;;;;;5017634;28;20018;-90
2022/07/29 04:17:52;;;;;;;5.70;1.95;;;15.00;99.90;;;;;;5000822;28;20014;-81
2022/07/29 04:20:18;;;;;;;5.93;1.80;;;15.00;99.90;;;;;;5017602;28;20154;-85
2022/07/29 04:22:47;;;;;;;5.20;1.50;;;14.90;99.90;;;;;;5000657;28;20037;-81
2022/07/29 04:25:12;;;;;;;4.00;1.70;;;14.90;99.90;;;;;;5000940;28;20029;-80
2022/07/29 04:27:59;;;;;;;5.97;2.03;;;14.90;99.90;;;;;;5000424;28;20102;-84
2022/07/29 04:30:23;;;;;;;2.08;1.20;;;14.90;99.90;;;;;;5017531;28;20027;-85
2022/07/29 04:32:49;;;;;;;3.65;1.92;;;14.90;99.90;;;;;;5017440;28;20030;-86
2022/07/29 04:35:15;;;;;;;4.53;1.70;;;14.80;99.90;;;;;;5000723;28;20033;-83
2022/07/29 04:37:40;;;;;;;5.07;1.50;;;14.90;99.90;;;;;;5003515;28;20042;-84
2022/07/29 04:40:06;;;;;;;7.72;1.65;;;14.80;99.90;;;;;;5020839;28;20017;-83
2022/07/29 04:42:32;;;;;;;6.28;1.92;;;14.80;99.90;;;;;;5021230;28;20026;-88
2022/07/29 04:44:58;;;;;;;2.78;1.70;;;14.80;99.90;;;;;;5021030;28;20086;-87
2022/07/29 04:47:23;;;;;;;8.98;1.65;;;14.80;99.90;;;;;;5020969;28;20019;-82
2022/07/29 04:49:49;;;;;;;5.50;1.40;;;14.80;99.90;;;;;;5020964;28;20049;-84
2022/07/29 04:52:15;;;;;;;6.25;1.40;;;14.80;99.90;;;;;;5003861;28;20041;-81
2022/07/29 04:54:40;;;;;;;5.45;1.73;;;14.80;99.90;;;;;;5004098;28;20038;-81
2022/07/29 04:57:06;;;;;;;8.85;1.85;;;14.80;99.90;;;;;;5020967;28;20041;-86
2022/07/29 04:59:32;;;;;;;5.10;1.60;;;14.80;99.90;;;;;;5020567;28;20086;-82
2022/07/29 05:02:00;;;;;;;5.05;1.70;;;14.80;99.90;;;;;;5020901;28;20018;-82
2022/07/29 05:04:25;;;;;;;4.72;1.73;;;14.80;99.90;;;;;;5003710;28;20037;-82
2022/07/29 05:06:51;;;;;;;8.35;1.83;;;14.80;99.90;;;;;;5020587;28;20045;-84
2022/07/29 05:09:21;;;;;;;2.88;1.40;;;14.90;99.90;;;;;;5020418;28;20011;-87
2022/07/29 05:11:46;;;;;;;9.52;1.77;;;14.90;99.90;;;;;;5020530;28;20037;-84
2022/07/29 05:14:12;;;;;;;7.45;1.42;;;14.90;99.90;;;;;;5003339;28;20015;-88
2022/07/29 05:16:39;;;;;;;2.03;1.40;;;14.90;99.90;;;;;;5020427;28;20030;-82
2022/07/29 05:19:05;;;;;;;3.90;1.55;;;14.90;99.90;;;;;;5003396;28;20081;-87
2022/07/29 05:21:31;;;;;;;10.18;1.73;;;14.90;99.90;;;;;;5020147;28;20033;-83
2022/07/29 05:23:57;;;;;;;6.75;1.67;;;14.90;99.90;;;;;;5003025;28;20022;-88
2022/07/29 05:26:24;;;;;;;7.70;1.45;;;14.90;99.90;;;;;;5003012;28;20085;-92
2022/07/29 05:28:50;;;;;;;4.30;1.42;;;14.90;99.90;;;;;;5002823;28;20065;-87
2022/07/29 05:31:22;;;;;;;4.32;1.75;;;14.90;99.90;;;;;;5019547;28;20083;-90
2022/07/29 05:33:47;;;;;;;2.00;1.50;;;14.90;99.90;;;;;;5020219;28;20061;-81
2022/07/29 05:36:13;;;;;;;8.13;2.03;;;14.80;99.90;;;;;;5020000;28;20018;-83
2022/07/29 05:38:38;;;;;;;1.85;1.20;;;14.80;99.90;;;;;;5020150;28;20022;-84
2022/07/29 05:41:05;;;;;;;9.23;1.60;;;14.80;99.90;;;;;;5002743;28;20078;-85
2022/07/29 05:43:31;;;;;;;5.10;1.70;;;14.80;99.90;;;;;;5002590;28;20039;-89
2022/07/29 05:45:56;;;;;;;4.40;1.60;;;14.80;99.90;;;;;;5019239;28;20023;-90
2022/07/29 05:48:23;;;;;;;4.18;1.60;;;14.80;99.90;;;;;;5001782;28;20030;-90
2022/07/29 05:50:48;;;;;;;6.60;1.70;;;14.80;99.90;;;;;;5002048;28;20035;-92
2022/07/29 05:53:14;;;;;;;5.93;1.50;;;14.80;99.90;;;;;;5001940;28;20037;-86
2022/07/29 05:55:40;;;;;;;4.20;1.60;;;14.70;99.90;;;;;;5002823;28;20062;-83
2022/07/29 05:58:05;;;;;;;8.32;1.38;;;14.70;99.90;;;;;;5019725;28;20082;-87
2022/07/29 06:00:31;;;;;;;6.28;1.80;;;14.80;99.90;;;;;;5019488;28;20026;-83
2022/07/29 06:03:00;;;;;;;3.70;1.50;;;14.80;99.90;;;;;;5019524;28;20019;-85
2022/07/29 06:05:25;;;;;;;4.78;1.70;;;14.70;99.90;;;;;;5002402;28;20042;-83
2022/07/29 06:07:51;;;;;;;3.63;1.60;;;14.70;99.90;;;;;;5002478;28;20034;-91
2022/07/29 06:10:17;;;;;;;9.00;1.77;;;14.70;99.90;;;;;;5001510;28;20034;-89
2022/07/29 06:12:43;;;;;;;7.88;1.50;;;14.70;99.90;;;;;;5018640;28;20022;-91
2022/07/29 06:15:09;;;;;;;2.53;1.63;;;14.70;99.90;;;;;;5001968;28;20082;-94
2022/07/29 06:17:34;;;;;;;4.88;1.50;;;14.70;99.90;;;;;;5018795;28;20014;-88
2022/07/29 06:20:01;;;;;;;3.45;1.50;;;14.70;99.90;;;;;;5001588;28;20049;-91
2022/07/29 06:22:26;;;;;;;6.72;1.67;;;14.70;99.90;;;;;;5001714;28;20057;-90
2022/07/29 06:24:52;;;;;;;9.73;1.75;;;14.70;99.90;;;;;;5001924;28;20038;-86
2022/07/29 06:27:18;;;;;;;7.10;1.75;;;14.70;99.90;;;;;;5018834;28;20042;-90
2022/07/29 06:29:43;;;;;;;4.05;1.67;;;14.70;99.90;;;;;;5018609;28;20038;-88
2022/07/29 06:32:09;;;;;;;5.38;1.42;;;14.70;99.90;;;;;;5001609;28;20089;-90
2022/07/29 06:34:36;;;;;;;6.20;1.40;;;14.70;99.90;;;;;;5001381;28;20022;-83
2022/07/29 06:37:07;;;;;;;4.07;1.23;;;14.70;99.90;;;;;;5001919;28;20050;-85
2022/07/29 06:39:43;;;;;;;5.35;1.55;;;14.70;99.90;;;;;;5018938;28;20066;-84
2022/07/29 06:42:08;;;;;;;7.47;2.30;;;14.70;99.90;;;;;;5001446;28;20023;-92
2022/07/29 06:44:34;;;;;;;2.95;1.73;;;14.70;99.90;;;;;;5001175;28;20041;-93
2022/07/29 06:47:01;;;;;;;8.00;1.75;;;14.70;99.90;;;;;;5000706;28;20023;-92
2022/07/29 06:49:27;;;;;;;3.92;1.55;;;14.80;99.90;;;;;;5000277;28;20018;-91
2022/07/29 06:51:54;;;;;;;6.68;1.67;;;14.80;99.90;;;;;;5000072;28;20037;-85
2022/07/29 06:54:21;;;;;;;5.43;1.63;;;14.80;99.90;;;;;;5016935;28;20037;-93
2022/07/29 06:56:47;;;;;;;6.72;1.92;;;14.80;99.90;;;;;;5000212;28;20057;-88
2022/07/29 06:59:12;;;;;;;7.13;1.75;;;14.80;99.90;;;;;;4998945;28;20029;-89
2022/07/29 07:01:43;;;;;;;4.88;1.67;;;14.90;99.90;;;;;;5017259;28;20022;-87
2022/07/29 07:04:10;;;;;;;3.58;1.60;;;14.90;99.90;;;;;;5000143;28;20040;-86
2022/07/29 07:06:36;;;;;;;6.85;1.60;;;14.90;99.90;;;;;;5000196;28;20018;-91
2022/07/29 07:09:02;;;;;;;1.90;1.20;;;14.90;99.90;;;;;;5000136;28;20093;-90
2022/07/29 07:11:28;;;;;;;8.85;1.75;;;14.90;99.90;;;;;;5000388;28;20151;-88
2022/07/29 07:13:55;;;;;;;5.03;1.67;;;14.90;99.90;;;;;;5017972;28;20081;-87
2022/07/29 07:16:20;;;;;;;6.10;1.45;;;15.00;99.90;;;;;;5000907;28;20086;-88
2022/07/29 07:18:47;;;;;;;5.70;1.70;;;15.00;99.90;;;;;;5000780;28;20014;-87
2022/07/29 07:21:13;;;;;;;7.03;1.70;;;15.00;99.90;;;;;;5017674;28;20041;-87
2022/07/29 07:23:39;;;;;;;5.53;1.52;;;15.00;99.90;;;;;;5017070;28;20078;-84
2022/07/29 07:26:05;;;;;;;7.60;1.90;;;15.00;99.90;;;;;;5017203;28;20031;-82
2022/07/29 07:28:36;;;;;;;3.65;1.60;;;15.00;99.90;;;;;;5017781;28;20018;-84
2022/07/29 07:31:02;;;;;;;5.55;1.60;;;15.00;99.90;;;;;;5000469;28;20047;-85
2022/07/29 07:33:33;;;;;;;10.52;2.25;;;15.00;99.90;;;;;;5000358;28;20018;-85
2022/07/29 07:35:59;;;;;;;4.05;1.63;;;15.00;99.90;;;;;;5000032;28;20018;-89
2022/07/29 07:38:33;;;;;;;8.05;2.20;;;15.00;99.90;;;;;;5017402;28;20021;-85
2022/07/29 07:40:59;;;;;;;5.25;1.73;;;15.10;99.90;;;;;;5000346;28;20018;-84
2022/07/29 07:43:28;;;;;;;7.82;1.77;;;15.10;99.90;;;;;;5016607;28;20024;-82
2022/07/29 07:45:54;;;;;;;5.15;1.75;;;15.10;99.90;;;;;;4984156;28;20069;-84
2022/07/29 07:48:20;;;;;;;5.68;1.80;;;15.10;99.90;;;;;;4999358;28;20033;-83
2022/07/29 07:50:46;;;;;;;5.20;1.60;;;15.10;99.90;;;;;;4999535;28;20046;-94
2022/07/29 07:53:13;;;;;;;5.57;1.77;;;15.20;99.90;;;;;;4998651;28;20022;-82
2022/07/29 07:55:43;;;;;;;14.65;2.25;;;15.20;99.90;;;;;;4998112;28;20064;-87
2022/07/29 07:58:10;;;;;;;7.95;2.10;;;15.20;99.90;;;;;;5013888;28;20023;-85
2022/07/29 08:00:37;;;;;;;5.50;1.77;;;15.20;99.90;;;;;;4998427;28;20017;-92
2022/07/29 08:03:03;;;;;;;11.20;2.08;;;15.30;99.90;;;;;;4993697;28;20018;-84
2022/07/29 08:05:29;;;;;;;7.57;1.85;;;15.30;99.90;;;;;;5015559;28;20033;-82
2022/07/29 08:07:56;;;;;;;10.68;1.92;;;15.30;99.90;;;;;;5015815;28;20019;-84
2022/07/29 08:13:26;;;;;;;6.30;1.98;;;15.30;99.90;;;;;;5019459;28;20049;-86
2022/07/29 08:15:57;;;;;;;4.72;1.77;;;15.40;99.90;;;;;;5005924;28;20024;-89
2022/07/29 08:18:28;;;;;;;7.03;1.90;;;15.40;99.90;;;;;;4985391;28;20034;-84
2022/07/29 08:20:54;;;;;;;10.32;2.13;;;15.40;99.90;;;;;;4987991;28;20011;-82
2022/07/29 08:23:21;;;;;;;10.90;2.17;;;15.40;99.90;;;;;;5021189;28;20011;-83
2022/07/29 08:25:47;;;;;;;9.00;1.98;;;15.50;99.90;;;;;;5020872;28;20123;-84
2022/07/29 08:28:12;;;;;;;5.68;1.70;;;15.40;99.90;;;;;;4996167;28;20053;-85
2022/07/29 08:30:38;;;;;;;10.27;1.92;;;15.50;99.90;;;;;;5021116;28;20044;-84
2022/07/29 08:33:04;;;;;;;6.45;1.83;;;15.50;99.90;;;;;;5003887;28;20019;-82
2022/07/29 08:35:31;;;;;;;10.60;1.98;;;15.60;99.90;;;;;;5003506;28;20053;-85
2022/07/29 08:37:56;;;;;;;6.47;1.80;;;15.60;99.90;;;;;;5020511;28;20022;-91
2022/07/29 08:40:23;;;;;;;5.32;1.80;;;15.60;99.90;;;;;;5014933;28;20041;-94
2022/07/29 08:42:49;;;;;;;5.68;2.55;;;15.70;99.90;;;;;;4986377;28;20030;-92
2022/07/29 08:45:15;;;;;;;10.40;1.80;;;15.80;99.90;;;;;;4993567;28;20029;-95
2022/07/29 08:47:45;;;;;;;9.55;2.05;;;15.80;99.90;;;;;;5012548;28;20022;-95
2022/07/29 08:50:12;;;;;;;8.75;2.53;;;15.90;99.90;;;;;;4997486;28;20034;-95
2022/07/29 08:52:44;;;;;;;5.00;2.30;;;15.90;99.90;;;;;;4981536;28;20027;-96
2022/07/29 08:55:10;;;;;;;11.18;2.47;;;16.00;99.90;;;;;;4984442;28;20043;-95
2022/07/29 08:57:44;;;;;;;9.27;2.78;;;16.00;99.90;;;;;;4999289;28;20033;-87
2022/07/29 09:00:10;;;;;;;7.85;1.70;;;16.10;99.90;;;;;;4999083;28;20022;-88
2022/07/29 09:02:42;;;;;;;7.68;1.95;;;16.10;99.90;;;;;;4992291;28;20042;-88
2022/07/29 09:05:08;;;;;;;6.05;1.63;;;16.20;99.90;;;;;;5019133;28;20038;-96
2022/07/29 09:07:34;;;;;;;8.43;2.17;;;16.30;99.90;;;;;;4995912;28;20030;-91
2022/07/29 09:10:04;;;;;;;9.55;2.22;;;16.40;99.90;;;;;;4994497;28;20062;-94
2022/07/29 09:12:34;;;;;;;7.50;2.03;;;16.50;99.90;;;;;;4978517;28;20039;-96
2022/07/29 09:15:01;;;;;;;6.80;1.83;;;16.50;99.90;;;;;;5009601;28;20030;-94
2022/07/29 09:17:49;;;;;;;8.13;1.90;;;16.60;99.90;;;;;;4986900;28;20028;-95
2022/07/29 09:20:18;;;;;;;8.00;2.05;;;16.60;99.90;;;;;;4993820;28;20035;-94
2022/07/29 09:22:49;;;;;;;7.10;1.92;;;16.80;99.90;;;;;;4983340;28;20022;-96
2022/07/29 09:25:33;;;;;;;6.53;1.80;;;16.80;99.90;;;;;;4985597;28;20046;-95
2022/07/29 09:28:16;;;;;;;10.02;2.08;;;17.00;99.90;;;;;;5003689;28;20047;-95
2022/07/29 09:30:56;;;;;;;7.22;2.22;;;17.10;99.90;;;;;;5007528;28;20046;-96
2022/07/29 09:33:23;;;;;;;7.40;2.00;;;17.30;99.90;;;;;;4999003;28;20227;-93
2022/07/29 09:36:06;;;;;;;12.80;2.55;;;17.30;99.90;;;;;;5016113;28;20264;-94
2022/07/29 09:38:33;;;;;;;9.10;1.70;;;17.40;99.90;;;;;;5017515;28;20034;-89
2022/07/29 09:41:01;;;;;;;3.47;1.55;;;17.50;99.90;;;;;;4993306;28;20026;-93
2022/07/29 09:43:27;;;;;;;7.03;1.60;;;17.60;99.90;;;;;;4995607;28;20025;-94
2022/07/29 09:45:53;;;;;;;6.35;1.63;;;17.70;99.90;;;;;;5009151;28;20034;-94
2022/07/29 09:48:25;;;;;;;5.65;1.92;;;17.70;99.90;;;;;;5003342;28;20002;-95
2022/07/29 09:50:52;;;;;;;6.80;1.92;;;17.70;99.90;;;;;;4987139;28;20038;-96
2022/07/29 09:53:40;;;;;;;10.48;1.98;;;17.80;99.90;;;;;;5003064;28;20022;-94
2022/07/29 09:56:06;;;;;;;6.63;1.70;;;17.80;99.90;;;;;;5108332;23;20098;-93
2022/07/29 09:58:35;;;;;;;4.30;1.70;;;18.00;99.90;;;;;;4983719;28;20046;-94
2022/07/29 10:01:01;;;;;;;8.52;2.05;;;18.10;99.90;;;;;;4964664;28;20117;-94
2022/07/29 10:03:28;;;;;;;4.80;2.10;;;18.20;99.90;;;;;;4985805;28;20038;-93
2022/07/29 10:06:10;;;;;;;6.28;1.90;;;18.30;99.90;;;;;;4983864;28;20035;-94
2022/07/29 10:08:37;;;;;;;6.32;2.03;;;18.40;99.90;;;;;;4978848;28;20031;-95
2022/07/29 10:11:17;;;;;;;7.93;2.42;;;18.50;99.90;;;;;;4986152;28;20097;-93
2022/07/29 10:13:45;;;;;;;7.97;1.80;;;18.70;99.90;;;;;;4981071;28;20035;-92
2022/07/29 10:16:11;;;;;;;6.43;2.03;;;18.80;99.90;;;;;;4988833;28;20034;-94
2022/07/29 10:18:42;;;;;;;6.20;1.63;;;18.80;99.90;;;;;;4968036;28;20026;-95
2022/07/29 10:21:11;;;;;;;4.90;1.88;;;18.80;99.90;;;;;;4967345;28;20035;-93
2022/07/29 10:23:37;;;;;;;11.38;1.95;;;18.70;99.90;;;;;;4985213;28;20027;-94
2022/07/29 10:26:03;;;;;;;8.20;2.35;;;18.70;99.90;;;;;;4969218;28;20030;-94
2022/07/29 10:28:32;;;;;;;6.45;1.70;;;18.70;99.90;;;;;;4985162;28;20050;-95
2022/07/29 10:31:19;;;;;;;5.30;1.88;;;18.70;99.90;;;;;;4977720;28;20035;-93
2022/07/29 10:34:04;;;;;;;8.10;2.45;;;18.60;99.90;;;;;;4988950;28;20022;-91
2022/07/29 10:36:51;;;;;;;6.15;2.10;;;18.60;99.90;;;;;;4986225;28;20027;-93
2022/07/29 10:39:39;;;;;;;5.30;1.90;;;18.70;99.90;;;;;;4967509;28;20031;-95
2022/07/29 10:42:16;;;;;;;7.47;2.42;;;18.70;99.90;;;;;;4980790;28;20053;-94
2022/07/29 10:44:43;;;;;;;6.90;1.70;;;18.60;99.90;;;;;;4987754;28;20035;-95
2022/07/29 10:47:21;;;;;;;6.03;1.98;;;18.60;99.90;;;;;;4991782;28;20023;-94
2022/07/29 10:50:02;;;;;;;8.38;1.92;;;18.60;99.90;;;;;;4990406;28;20042;-95
2022/07/29 10:52:54;;;;;;;8.20;2.10;;;18.60;99.90;;;;;;4986861;28;20093;-94
2022/07/29 10:55:39;;;;;;;7.70;1.90;;;18.60;99.90;;;;;;4971338;28;20102;-94
2022/07/29 10:58:13;;;;;;;4.63;2.15;;;18.50;99.90;;;;;;4968587;28;20039;-95
2022/07/29 11:00:39;;;;;;;8.50;2.13;;;18.50;99.90;;;;;;4985804;28;20022;-95
2022/07/29 11:03:04;;;;;;;7.70;1.90;;;18.40;99.90;;;;;;4983747;28;20034;-94
2022/07/29 11:05:54;;;;;;;5.50;2.03;;;18.40;99.90;;;;;;4985373;28;20043;-94
2022/07/29 11:08:23;;;;;;;5.65;2.10;;;18.40;99.90;;;;;;4964864;28;20058;-95
2022/07/29 11:11:12;;;;;;;3.05;1.65;;;18.30;99.90;;;;;;4988793;28;20045;-94
2022/07/29 11:13:50;;;;;;;8.60;2.00;;;18.30;99.90;;;;;;4992603;28;20023;-93
2022/07/29 11:16:17;;;;;;;8.48;1.92;;;18.30;99.90;;;;;;4986142;28;20114;-95
2022/07/29 11:19:11;;;;;;;6.63;1.60;;;18.20;99.90;;;;;;4968840;28;20031;-93
2022/07/29 11:21:38;;;;;;;6.20;1.73;;;18.20;99.90;;;;;;4983599;28;20041;-91
2022/07/29 11:24:30;;;;;;;7.28;1.92;;;18.20;99.90;;;;;;4967612;28;20022;-95
2022/07/29 11:27:14;;;;;;;8.68;2.47;;;18.30;99.90;;;;;;4987999;28;20093;-91
2022/07/29 11:29:57;;;;;;;7.70;1.90;;;18.30;99.90;;;;;;4990742;28;20039;-96
2022/07/29 11:32:25;;;;;;;4.80;2.15;;;18.30;99.90;;;;;;4984283;28;20042;-93
2022/07/29 11:35:11;;;;;;;6.28;2.40;;;18.40;99.90;;;;;;4974057;28;20023;-96
2022/07/29 11:37:37;;;;;;;6.63;2.35;;;18.50;99.90;;;;;;4976560;28;20034;-93
2022/07/29 11:40:08;;;;;;;8.73;2.40;;;18.60;99.90;;;;;;4994436;28;20082;-88
2022/07/29 11:42:40;;;;;;;;;;;18.70;99.90;;;;;;4995101;28;20015;-95
2022/07/29 11:45:18;;;;;;;6.22;2.20;;;18.90;99.90;;;;;;4960128;28;19918;-95
2022/07/29 11:47:49;;;;;;;11.40;2.58;;;19.10;99.90;;;;;;4982002;28;20034;-96
2022/07/29 11:50:36;;;;;;;7.43;2.33;;;19.20;99.90;;;;;;4975260;28;20027;-96
2022/07/29 11:53:10;;;;;;;7.20;1.80;;;19.20;99.90;;;;;;4988620;28;20037;-95
2022/07/29 11:55:39;;;;;;;4.82;2.08;;;19.30;99.90;;;;;;4990713;28;20129;-93
2022/07/29 11:58:05;;;;;;;9.82;2.28;;;19.40;99.90;;;;;;4976387;28;20031;-93
2022/07/29 12:00:37;;;;;;;6.57;1.95;;;19.50;99.90;;;;;;4969566;28;20495;-95
2022/07/29 12:03:06;;;;;;;8.77;1.92;;;19.70;99.90;;;;;;4987103;28;20113;-93
2022/07/29 12:05:41;;;;;;;4.03;1.95;;;19.90;99.90;;;;;;4990416;28;20026;-95
2022/07/29 12:08:18;;;;;;;11.75;2.88;;;20.20;99.90;;;;;;4979822;28;20122;-96
2022/07/29 12:10:45;;;;;;;10.98;2.17;;;20.40;99.90;;;;;;4991851;28;20031;-96
2022/07/29 12:13:14;;;;;;;6.60;2.35;;;20.50;99.90;;;;;;4992079;28;20031;-95
2022/07/29 12:15:40;;;;;;;5.20;1.73;;;20.60;99.90;;;;;;4975474;28;20123;-96
2022/07/29 12:18:11;;;;;;;12.13;2.83;;;20.70;99.90;;;;;;4975336;28;20030;-95
2022/07/29 12:20:37;;;;;;;7.18;2.10;;;20.70;99.10;;;;;;4996115;28;20035;-96
2022/07/29 12:23:07;;;;;;;4.57;1.80;;;20.70;98.80;;;;;;5002655;28;20026;-88
2022/07/29 12:25:34;;;;;;;5.60;1.85;;;20.80;98.40;;;;;;4985959;28;20015;-93
2022/07/29 12:28:03;;;;;;;10.18;2.42;;;20.90;98.10;;;;;;4985331;28;20034;-95
2022/07/29 12:30:38;;;;;;;7.22;2.38;;;20.90;97.10;;;;;;4983575;28;20037;-92
2022/07/29 12:33:11;;;;;;;10.35;2.20;;;20.90;96.00;;;;;;4980308;28;20038;-96
2022/07/29 12:35:38;;;;;;;10.18;1.92;;;20.80;95.70;;;;;;4985913;28;20037;-92
2022/07/29 12:38:07;;;;;;;5.38;2.08;;;20.80;95.50;;;;;;5000528;28;20088;-95
2022/07/29 12:40:33;;;;;;;4.43;1.42;;;20.80;95.10;;;;;;4985955;28;20029;-93
2022/07/29 12:43:09;;;;;;;4.28;1.80;;;20.70;95.00;;;;;;4986524;28;20019;-95
2022/07/29 12:45:36;;;;;;;6.10;2.28;;;20.60;94.80;;;;;;4985903;28;20023;-93
2022/07/29 12:48:06;;;;;;;5.60;2.10;;;20.50;94.80;;;;;;4985902;28;20023;-96
2022/07/29 12:50:32;;;;;;;9.23;1.90;;;20.40;94.90;;;;;;4984906;28;20058;-95
2022/07/29 12:53:12;;;;;;;3.33;1.52;;;20.40;94.70;;;;;;4985735;28;20019;-94
2022/07/29 12:55:51;;;;;;;5.65;1.73;;;20.30;94.50;;;;;;5002216;28;20062;-96
2022/07/29 12:58:30;;;;;;;6.53;1.50;;;20.20;94.30;;;;;;4981735;28;20027;-95
2022/07/29 13:01:04;;;;;;;6.40;1.75;;;20.10;94.20;;;;;;4981665;28;20082;-94
2022/07/29 13:03:49;;;;;;;8.75;1.85;;;20.10;94.40;;;;;;4978120;28;20086;-94